Hlavní strana
METAR-TAF:

METAR-TAF

Letiště :

Paříž-Charlese de Gaulla, Francie

Letiště Charlese de Gaulla

zeměpisná šířka: 49-01N, zeměpisná délka: 002-32E, výška: 118 m

Aktuální stav počasí

Zpráva byla vytvořena před 49 minutami, v 12:30 UTC
Západní vítr 8 kt, proměnlivý mezi západojihozápadním a severoseverozápadním
Teplota 18°C
Vlhkost vzduchu 52%
Tlak 1019 hPa
Viditelnost 10 km a více
Polojasno ve výšce 4000 ft
Polojasno ve výšce 26000 ft

METAR: LFPG 231230Z 27008KT 240V330 9999 SCT040 SCT260 18/08 Q1019 NOSIG

Čas: 15:19 (13:19 UTC)

Předpověď počasí

Zpráva byla vytvořena před 2 hodinami a 19 minutami, v 11:00 UTC
Předpověď platná od 23 v 12 UTC do 24 v 18 UTC
Západoseverozápadní vítr 5 kt
Viditelnost 10 km a více
Polojasno ve výšce 4000 ft

TAF: LFPG 231100Z 2312/2418 29005KT 9999 SCT040 TX20/2415Z TN09/2405Z

Stav a předpovědi počasí z více než 4 000 letišť (zprávy METAR a TAF).

Červené a žluté tečky na mapě představují dostupné meteorologické stanice.

Když kurzor umístíte na tečku, zobrazí se název stanice.

Pak kliknutím zobrazíte stav a předpověď počasí.

Chcete-li změnit mapu, kliknutím na zelené tlačítko se znaménkem +mapu přiblížíte, kliknutím na zelené tlačítko se znaménkem – mapu oddálíte a kliknutím na zelené šipky přejdete na sousední mapy.


METAR-TAF: